createdAt,value
2023-02-08T00:00:41.437Z,54.20
2023-02-08T00:06:01.139Z,54.50
2023-02-08T00:11:06.208Z,55.10
2023-02-08T00:16:12.543Z,54.80
2023-02-08T00:21:18.792Z,54.50
2023-02-08T00:26:22.808Z,55.10
2023-02-08T00:31:27.135Z,54.30
2023-02-08T00:36:31.390Z,54.20
2023-02-08T00:41:35.508Z,54.50
2023-02-08T00:46:39.571Z,54.20
2023-02-08T00:51:43.673Z,55.00
2023-02-08T00:56:48.791Z,54.70
2023-02-08T01:01:52.671Z,54.60
2023-02-08T01:06:56.715Z,54.30
2023-02-08T01:12:00.835Z,54.30
2023-02-08T01:17:04.754Z,54.20
2023-02-08T01:22:09.236Z,54.20
2023-02-08T01:27:13.437Z,53.90
2023-02-08T01:32:17.297Z,53.80
2023-02-08T01:37:21.522Z,54.30
2023-02-08T01:42:25.634Z,54.10
2023-02-08T01:47:30.582Z,54.10
2023-02-08T01:52:34.933Z,54.60
2023-02-08T01:57:39.173Z,54.10
2023-02-08T02:02:46.097Z,53.80
2023-02-08T02:07:52.560Z,54.10
2023-02-08T02:13:02.634Z,54.10
2023-02-08T02:18:08.955Z,54.80
2023-02-08T02:23:41.402Z,55.30
2023-02-08T02:28:53.192Z,55.00
2023-02-08T02:34:20.968Z,55.10
2023-02-08T02:39:48.760Z,54.40
2023-02-08T02:45:05.101Z,54.00
2023-02-08T02:50:20.974Z,53.30
2023-02-08T02:55:27.029Z,52.50
2023-02-08T03:00:33.142Z,52.80
2023-02-08T03:05:37.251Z,52.40
2023-02-08T03:11:01.642Z,52.30
2023-02-08T03:16:20.361Z,52.20
2023-02-08T03:21:37.246Z,52.10
2023-02-08T03:26:54.224Z,51.90
2023-02-08T03:32:07.122Z,52.20
2023-02-08T03:37:16.712Z,51.80
2023-02-08T03:42:25.601Z,51.40
2023-02-08T03:47:34.371Z,51.70
2023-02-08T03:52:39.435Z,51.30
2023-02-08T03:57:52.248Z,51.20
2023-02-08T04:03:02.330Z,51.00
2023-02-08T04:08:06.442Z,51.10
2023-02-08T04:13:10.488Z,50.80
2023-02-08T04:18:14.612Z,51.10
2023-02-08T04:23:18.648Z,50.60
2023-02-08T04:28:23.029Z,50.40
2023-02-08T04:33:27.029Z,50.30
2023-02-08T04:38:31.675Z,50.30
2023-02-08T04:43:36.027Z,49.90
2023-02-08T04:48:40.137Z,49.50
2023-02-08T04:53:44.068Z,49.10
2023-02-08T04:58:48.939Z,49.60
2023-02-08T05:03:52.895Z,49.60
2023-02-08T05:08:57.006Z,49.70
2023-02-08T05:14:01.234Z,49.70
2023-02-08T05:19:05.878Z,49.70
2023-02-08T05:24:12.916Z,49.50
2023-02-08T05:29:17.018Z,49.50
2023-02-08T05:34:21.172Z,49.70
2023-02-08T05:39:25.385Z,49.30
2023-02-08T05:44:29.905Z,49.20
2023-02-08T05:49:34.770Z,49.20
2023-02-08T05:54:38.907Z,49.00
2023-02-08T05:59:43.033Z,49.10
2023-02-08T06:04:47.199Z,49.00
2023-02-08T06:09:51.410Z,48.90
2023-02-08T06:14:55.532Z,49.00
2023-02-08T06:19:59.686Z,48.80
2023-02-08T06:25:04.229Z,48.80
2023-02-08T06:30:11.368Z,48.90
2023-02-08T06:35:15.673Z,48.80
2023-02-08T06:40:19.906Z,48.80
2023-02-08T06:45:23.943Z,48.80
2023-02-08T06:50:28.480Z,49.30
2023-02-08T06:55:32.625Z,49.30
2023-02-08T07:00:36.753Z,48.80
2023-02-08T07:05:49.450Z,49.60
2023-02-08T07:10:59.756Z,50.50
2023-02-08T07:16:05.499Z,51.00
2023-02-08T07:21:12.202Z,51.40
2023-02-08T07:26:16.359Z,51.60
2023-02-08T07:31:20.499Z,51.70
2023-02-08T07:36:24.933Z,51.50
2023-02-08T07:41:29.180Z,51.70
2023-02-08T07:46:33.414Z,51.50
2023-02-08T07:51:37.542Z,51.90
2023-02-08T07:56:42.091Z,51.80
2023-02-08T08:01:46.510Z,52.30
2023-02-08T08:06:52.310Z,51.80
2023-02-08T08:11:56.239Z,51.80
2023-02-08T08:17:00.459Z,51.40
2023-02-08T08:22:04.603Z,51.50
2023-02-08T08:27:08.532Z,51.10
2023-02-08T08:32:12.671Z,50.60
2023-02-08T08:37:16.706Z,50.90
2023-02-08T08:42:21.355Z,51.10
2023-02-08T08:47:25.599Z,51.40
2023-02-08T08:52:30.041Z,51.20
2023-02-08T08:57:33.949Z,51.10
2023-02-08T09:02:37.888Z,51.10
2023-02-08T09:07:42.124Z,50.20
2023-02-08T09:12:46.209Z,48.90
2023-02-08T09:17:50.487Z,48.20
2023-02-08T09:22:54.934Z,48.00
2023-02-08T09:27:59.411Z,47.80
2023-02-08T09:33:03.505Z,48.00
2023-02-08T09:38:07.752Z,47.40
2023-02-08T09:43:27.135Z,47.20
2023-02-08T09:48:36.832Z,46.90
2023-02-08T09:53:47.066Z,46.70
2023-02-08T09:58:53.725Z,46.70
2023-02-08T10:04:03.266Z,46.40
2023-02-08T10:09:14.887Z,46.50
2023-02-08T10:14:47.928Z,46.10
2023-02-08T10:20:03.667Z,46.20
2023-02-08T10:25:20.338Z,45.90
2023-02-08T10:30:53.484Z,46.10
2023-02-08T10:35:58.316Z,45.90
2023-02-08T10:41:06.665Z,46.20
2023-02-08T10:46:23.096Z,45.70
2023-02-08T10:51:27.487Z,45.80
2023-02-08T10:56:31.619Z,45.70
2023-02-08T11:01:36.046Z,45.70
2023-02-08T11:06:41.890Z,45.60
2023-02-08T11:11:47.175Z,45.70
2023-02-08T11:16:56.115Z,45.60
2023-02-08T11:22:02.124Z,45.90
2023-02-08T11:27:39.404Z,45.60
2023-02-08T11:32:48.952Z,45.50
2023-02-08T11:37:52.885Z,45.30
2023-02-08T11:42:57.789Z,45.30
2023-02-08T11:48:04.787Z,45.30
2023-02-08T11:53:36.917Z,45.10
2023-02-08T11:58:41.151Z,45.50
2023-02-08T12:03:48.417Z,44.90
2023-02-08T12:09:11.010Z,44.90
2023-02-08T12:14:38.690Z,44.80
2023-02-08T12:20:09.023Z,44.70
2023-02-08T12:25:38.730Z,44.70
2023-02-08T12:30:49.760Z,44.50
2023-02-08T12:36:27.654Z,44.70
2023-02-08T12:41:41.886Z,44.60
2023-02-08T12:47:18.754Z,44.80
2023-02-08T12:52:39.482Z,45.10
2023-02-08T12:57:47.498Z,45.20
2023-02-08T13:02:58.057Z,45.50
2023-02-08T13:08:39.777Z,45.80
2023-02-08T13:13:45.862Z,46.10
2023-02-08T13:18:54.385Z,46.10
2023-02-08T13:23:59.469Z,46.10
2023-02-08T13:29:04.202Z,46.20
2023-02-08T13:34:29.913Z,46.50
2023-02-08T13:39:36.616Z,46.80
2023-02-08T13:44:41.169Z,46.60
2023-02-08T13:49:51.032Z,47.40
2023-02-08T13:55:36.506Z,49.10
2023-02-08T14:00:56.831Z,50.20
2023-02-08T14:06:25.692Z,51.00
2023-02-08T14:11:39.979Z,50.70
2023-02-08T14:16:46.408Z,50.50
2023-02-08T14:22:08.803Z,50.80
2023-02-08T14:27:32.889Z,51.00
2023-02-08T14:32:40.507Z,51.20
2023-02-08T14:37:45.475Z,51.50
2023-02-08T14:43:00.957Z,51.90
2023-02-08T14:48:23.634Z,52.60
2023-02-08T14:53:55.636Z,52.30
2023-02-08T14:59:03.808Z,51.70
2023-02-08T15:04:09.222Z,51.00
2023-02-08T15:09:24.479Z,51.40
2023-02-08T15:14:31.183Z,51.00
2023-02-08T15:19:39.043Z,49.90
2023-02-08T15:24:54.576Z,49.40
2023-02-08T15:29:59.245Z,48.80
2023-02-08T15:35:05.206Z,48.40
2023-02-08T15:40:27.974Z,48.50
2023-02-08T15:45:32.137Z,48.00
2023-02-08T15:50:36.843Z,47.50
2023-02-08T15:55:51.628Z,48.10
2023-02-08T16:01:01.349Z,49.20
2023-02-08T16:06:13.044Z,49.30
2023-02-08T16:11:34.718Z,49.20
2023-02-08T16:16:44.113Z,48.70
2023-02-08T16:21:50.590Z,48.50
2023-02-08T16:27:05.448Z,48.00
2023-02-08T16:32:29.278Z,47.70
2023-02-08T16:37:35.433Z,47.50
2023-02-08T16:42:44.552Z,47.00
2023-02-08T16:47:58.407Z,46.70
2023-02-08T16:53:05.056Z,46.70
2023-02-08T16:58:16.136Z,46.80
2023-02-08T17:03:20.302Z,46.20
2023-02-08T17:08:24.683Z,48.20
2023-02-08T17:13:29.250Z,46.70
2023-02-08T17:18:36.410Z,46.60
2023-02-08T17:23:41.074Z,47.60
2023-02-08T17:28:50.503Z,47.00
2023-02-08T17:33:57.118Z,47.10
2023-02-08T17:39:03.170Z,48.50
2023-02-08T17:44:08.353Z,49.80
2023-02-08T17:49:13.436Z,50.20
2023-02-08T17:54:19.202Z,50.80
2023-02-08T17:59:27.669Z,50.30
2023-02-08T18:04:33.892Z,50.30
2023-02-08T18:09:39.974Z,50.30
2023-02-08T18:14:45.174Z,50.20
2023-02-08T18:19:54.802Z,50.60
2023-02-08T18:24:59.355Z,50.50
2023-02-08T18:30:06.007Z,50.00
2023-02-08T18:35:11.821Z,50.20
2023-02-08T18:40:19.287Z,50.30
2023-02-08T18:45:24.355Z,50.50
2023-02-08T18:50:31.429Z,50.20
2023-02-08T18:55:37.575Z,50.80
2023-02-08T19:00:43.757Z,49.90
2023-02-08T19:05:53.270Z,50.00
2023-02-08T19:11:05.263Z,49.40
2023-02-08T19:16:16.419Z,49.60
2023-02-08T19:21:22.356Z,50.20
2023-02-08T19:26:32.741Z,49.40
2023-02-08T19:31:39.954Z,50.00
2023-02-08T19:36:52.466Z,49.50
2023-02-08T19:41:59.681Z,49.80
2023-02-08T19:47:06.435Z,50.50
2023-02-08T19:52:15.190Z,50.80
2023-02-08T19:57:25.631Z,51.00
2023-02-08T20:02:32.223Z,51.10
2023-02-08T20:07:39.073Z,50.70
2023-02-08T20:12:47.760Z,50.80
2023-02-08T20:17:56.033Z,50.40
2023-02-08T20:23:22.571Z,50.50
2023-02-08T20:28:30.369Z,52.90
2023-02-08T20:33:37.132Z,53.20
2023-02-08T20:38:42.720Z,52.10
2023-02-08T20:43:49.102Z,51.20
2023-02-08T20:48:58.313Z,50.90
2023-02-08T20:54:05.383Z,50.70
2023-02-08T20:59:16.577Z,51.10
2023-02-08T21:04:24.678Z,50.20
2023-02-08T21:09:30.026Z,49.70
2023-02-08T21:14:35.285Z,49.70
2023-02-08T21:19:40.056Z,49.10
2023-02-08T21:24:44.685Z,49.50
2023-02-08T21:29:55.122Z,48.60
2023-02-08T21:34:59.141Z,48.70
2023-02-08T21:40:04.351Z,48.70
2023-02-08T21:45:10.222Z,48.70
2023-02-08T21:50:33.185Z,48.60
2023-02-08T21:55:37.337Z,48.60
2023-02-08T22:00:41.447Z,48.80
2023-02-08T22:06:06.628Z,48.50
2023-02-08T22:11:10.705Z,48.40
2023-02-08T22:16:15.909Z,48.90
2023-02-08T22:21:21.442Z,51.60
2023-02-08T22:26:25.664Z,52.20
2023-02-08T22:31:29.748Z,51.50
2023-02-08T22:36:34.147Z,51.10
2023-02-08T22:41:38.380Z,51.60
2023-02-08T22:46:42.284Z,51.40
2023-02-08T22:51:46.462Z,51.20
2023-02-08T22:56:51.299Z,50.70
2023-02-08T23:01:55.136Z,50.40
2023-02-08T23:07:00.181Z,50.20
2023-02-08T23:12:04.095Z,50.10
2023-02-08T23:17:08.515Z,49.80
2023-02-08T23:22:12.587Z,49.60
2023-02-08T23:27:16.404Z,49.40
2023-02-08T23:32:20.344Z,49.30
2023-02-08T23:37:24.373Z,49.70
2023-02-08T23:42:28.359Z,50.00
2023-02-08T23:47:32.755Z,50.00
2023-02-08T23:52:37.391Z,50.80
2023-02-08T23:57:41.438Z,51.10
